createdAt,value
2023-05-19T00:01:47.350Z,89883.44
2023-05-19T00:04:13.629Z,89886.44
2023-05-19T00:06:39.900Z,89882.50
2023-05-19T00:09:06.172Z,89871.88
2023-05-19T00:11:32.435Z,89870.25
2023-05-19T00:13:58.705Z,89869.50
2023-05-19T00:16:25.122Z,89879.22
2023-05-19T00:18:51.788Z,89872.31
2023-05-19T00:21:18.108Z,89867.75
2023-05-19T00:23:44.405Z,89864.09
2023-05-19T00:26:10.667Z,89858.63
2023-05-19T00:28:36.945Z,89858.63
2023-05-19T00:31:03.202Z,89862.19
2023-05-19T00:33:29.495Z,89863.78
2023-05-19T00:35:55.792Z,89865.63
2023-05-19T00:38:22.070Z,89860.41
2023-05-19T00:40:48.340Z,89867.75
2023-05-19T00:43:14.616Z,89856.72
2023-05-19T00:45:40.898Z,89865.72
2023-05-19T00:48:07.267Z,89856.50
2023-05-19T00:50:33.899Z,89854.53
2023-05-19T00:53:00.382Z,89860.91
2023-05-19T00:55:26.650Z,89859.25
2023-05-19T00:57:52.911Z,89859.53
2023-05-19T01:00:19.196Z,89856.28
2023-05-19T01:02:45.569Z,89856.97
2023-05-19T01:05:11.981Z,89858.94
2023-05-19T01:07:38.253Z,89857.44
2023-05-19T01:10:04.560Z,89862.91
2023-05-19T01:12:30.845Z,89859.25
2023-05-19T01:14:57.122Z,89867.25
2023-05-19T01:17:23.477Z,89856.56
2023-05-19T01:19:49.747Z,89859.69
2023-05-19T01:22:16.063Z,89865.94
2023-05-19T01:24:42.339Z,89862.94
2023-05-19T01:27:08.616Z,89865.63
2023-05-19T01:29:34.875Z,89866.31
2023-05-19T01:32:01.195Z,89861.25
2023-05-19T01:34:27.487Z,89863.91
2023-05-19T01:36:53.785Z,89857.03
2023-05-19T01:39:20.067Z,89862.69
2023-05-19T01:41:46.344Z,89860.88
2023-05-19T01:44:12.607Z,89860.44
2023-05-19T01:46:38.889Z,89860.03
2023-05-19T01:49:05.150Z,89852.00
2023-05-19T01:51:31.412Z,89858.09
2023-05-19T01:53:57.691Z,89852.59
2023-05-19T01:56:24.002Z,89846.91
2023-05-19T01:58:50.250Z,89843.56
2023-05-19T02:01:16.552Z,89846.91
2023-05-19T02:03:42.857Z,89840.28
2023-05-19T02:06:09.132Z,89844.72
2023-05-19T02:08:35.413Z,89839.34
2023-05-19T02:11:01.704Z,89834.56
2023-05-19T02:13:27.983Z,89845.03
2023-05-19T02:15:54.293Z,89837.06
2023-05-19T02:18:20.589Z,89841.25
2023-05-19T02:20:46.860Z,89840.84
2023-05-19T02:23:13.124Z,89839.31
2023-05-19T02:25:39.386Z,89838.50
2023-05-19T02:28:05.661Z,89833.00
2023-05-19T02:30:32.317Z,89830.00
2023-05-19T02:32:58.891Z,89832.22
2023-05-19T02:35:25.255Z,89835.47
2023-05-19T02:37:51.537Z,89834.69
2023-05-19T02:40:17.821Z,89827.06
2023-05-19T02:42:44.099Z,89830.06
2023-05-19T02:45:10.362Z,89818.41
2023-05-19T02:47:37.310Z,89817.63
2023-05-19T02:50:03.649Z,89814.94
2023-05-19T02:52:29.924Z,89821.41
2023-05-19T02:54:56.232Z,89825.09
2023-05-19T02:57:22.512Z,89823.69
2023-05-19T02:59:48.761Z,89820.09
2023-05-19T03:02:15.052Z,89824.13
2023-05-19T03:04:41.412Z,89814.84
2023-05-19T03:07:07.694Z,89813.38
2023-05-19T03:09:34.021Z,89816.00
2023-05-19T03:12:00.282Z,89817.72
2023-05-19T03:14:26.570Z,89814.53
2023-05-19T03:16:52.981Z,89810.97
2023-05-19T03:19:19.422Z,89809.72
2023-05-19T03:21:45.727Z,89805.94
2023-05-19T03:24:12.011Z,89803.78
2023-05-19T03:26:38.275Z,89808.38
2023-05-19T03:29:04.539Z,89812.09
2023-05-19T03:31:30.801Z,89815.56
2023-05-19T03:33:57.066Z,89810.00
2023-05-19T03:36:23.334Z,89808.00
2023-05-19T03:38:49.595Z,89805.28
2023-05-19T03:41:15.885Z,89806.59
2023-05-19T03:43:42.172Z,89801.06
2023-05-19T03:46:08.540Z,89802.47
2023-05-19T03:48:34.850Z,89814.84
2023-05-19T03:51:01.134Z,89812.53
2023-05-19T03:53:27.412Z,89801.88
2023-05-19T03:55:53.674Z,89809.06
2023-05-19T03:58:19.986Z,89810.53
2023-05-19T04:00:46.305Z,89813.25
2023-05-19T04:03:12.725Z,89806.69
2023-05-19T04:05:39.137Z,89814.84
2023-05-19T04:08:05.399Z,89812.69
2023-05-19T04:10:31.816Z,89814.22
2023-05-19T04:12:58.252Z,89809.56
2023-05-19T04:15:24.512Z,89824.31
2023-05-19T04:17:50.889Z,89829.63
2023-05-19T04:20:17.205Z,89824.91
2023-05-19T04:22:43.514Z,89825.63
2023-05-19T04:25:09.777Z,89821.84
2023-05-19T04:27:36.103Z,89824.16
2023-05-19T04:30:02.465Z,89819.63
2023-05-19T04:32:28.810Z,89813.50
2023-05-19T04:34:55.106Z,89817.03
2023-05-19T04:37:21.404Z,89817.72
2023-05-19T04:39:47.673Z,89821.09
2023-05-19T04:42:13.924Z,89825.56
2023-05-19T04:44:40.302Z,89832.28
2023-05-19T04:47:06.705Z,89825.41
2023-05-19T04:49:33.012Z,89823.34
2023-05-19T04:51:59.332Z,89824.66
2023-05-19T04:54:25.675Z,89822.78
2023-05-19T04:56:52.017Z,89821.00
2023-05-19T04:59:18.283Z,89822.47
2023-05-19T05:01:44.568Z,89822.97
2023-05-19T05:04:10.879Z,89830.34
2023-05-19T05:06:37.167Z,89828.00
2023-05-19T05:09:03.434Z,89825.16
2023-05-19T05:11:29.763Z,89820.19
2023-05-19T05:13:56.020Z,89821.53
2023-05-19T05:16:22.410Z,89828.44
2023-05-19T05:18:48.801Z,89828.81
2023-05-19T05:21:15.116Z,89825.00
2023-05-19T05:23:41.411Z,89830.88
2023-05-19T05:26:07.663Z,89832.44
2023-05-19T05:28:33.919Z,89828.03
2023-05-19T05:31:00.281Z,89839.09
2023-05-19T05:33:26.697Z,89829.03
2023-05-19T05:35:53.056Z,89828.34
2023-05-19T05:38:19.366Z,89829.41
2023-05-19T05:40:45.635Z,89825.22
2023-05-19T05:43:11.955Z,89825.09
2023-05-19T05:45:38.249Z,89830.44
2023-05-19T05:48:04.540Z,89828.63
2023-05-19T05:50:30.956Z,89827.56
2023-05-19T05:52:57.225Z,89824.44
2023-05-19T05:55:23.505Z,89824.25
2023-05-19T05:57:49.779Z,89821.16
2023-05-19T06:00:16.039Z,89820.38
2023-05-19T06:02:42.382Z,89824.69
2023-05-19T06:05:08.688Z,89821.50
2023-05-19T06:07:35.042Z,89820.06
2023-05-19T06:10:01.343Z,89814.16
2023-05-19T06:12:27.623Z,89817.91
2023-05-19T06:14:53.916Z,89822.06
2023-05-19T06:17:20.195Z,89821.47
2023-05-19T06:19:46.463Z,89825.38
2023-05-19T06:22:12.728Z,89821.19
2023-05-19T06:24:39.650Z,89818.81
2023-05-19T06:27:06.074Z,89825.56
2023-05-19T06:29:32.357Z,89815.59
2023-05-19T06:31:58.737Z,89819.66
2023-05-19T06:34:25.141Z,89818.84
2023-05-19T06:36:51.395Z,89818.69
2023-05-19T06:39:17.661Z,89815.72
2023-05-19T06:41:43.982Z,89820.03
2023-05-19T06:44:10.241Z,89826.06
2023-05-19T06:46:36.530Z,89831.09
2023-05-19T06:49:02.809Z,89823.44
2023-05-19T06:51:29.065Z,89821.44
2023-05-19T06:53:55.386Z,89817.16
2023-05-19T06:56:21.659Z,89819.34
2023-05-19T06:58:47.981Z,89822.34
2023-05-19T07:01:14.331Z,89825.50
2023-05-19T07:03:40.774Z,89822.94
2023-05-19T07:06:08.326Z,89817.09
2023-05-19T07:08:34.884Z,89819.94
2023-05-19T07:11:01.154Z,89820.72
2023-05-19T07:13:27.759Z,89824.16
2023-05-19T07:15:54.146Z,89820.44
2023-05-19T07:18:20.489Z,89817.16
2023-05-19T07:20:46.755Z,89815.44
2023-05-19T07:23:13.145Z,89817.88
2023-05-19T07:25:39.413Z,89817.16
2023-05-19T07:28:05.720Z,89811.50
2023-05-19T07:30:32.321Z,89823.72
2023-05-19T07:32:58.757Z,89817.13
2023-05-19T07:35:25.044Z,89815.44
2023-05-19T07:37:51.376Z,89815.13
2023-05-19T07:40:17.635Z,89818.97
2023-05-19T07:42:43.927Z,89811.09
2023-05-19T07:45:10.190Z,89807.50
2023-05-19T07:47:36.518Z,89807.91
2023-05-19T07:50:02.860Z,89812.94
2023-05-19T07:52:29.230Z,89803.34
2023-05-19T07:54:55.540Z,89796.34
2023-05-19T07:57:21.851Z,89802.00
2023-05-19T07:59:48.940Z,89801.94
2023-05-19T08:02:15.295Z,89799.00
2023-05-19T08:04:41.768Z,89801.56
2023-05-19T08:07:08.105Z,89794.69
2023-05-19T08:09:34.359Z,89787.81
2023-05-19T08:12:00.631Z,89789.56
2023-05-19T08:14:26.886Z,89790.81
2023-05-19T08:16:53.150Z,89787.28
2023-05-19T08:19:19.527Z,89791.81
2023-05-19T08:21:45.852Z,89785.22
2023-05-19T08:24:12.122Z,89774.81
2023-05-19T08:26:38.448Z,89785.25
2023-05-19T08:29:04.873Z,89781.66
2023-05-19T08:31:32.626Z,89776.38
2023-05-19T08:33:58.975Z,89775.63
2023-05-19T08:36:25.302Z,89780.75
2023-05-19T08:38:51.630Z,89774.63
2023-05-19T08:41:17.893Z,89773.47
2023-05-19T08:43:44.150Z,89771.53
2023-05-19T08:46:10.518Z,89778.72
2023-05-19T08:48:36.800Z,89774.22
2023-05-19T08:51:03.089Z,89766.28
2023-05-19T08:53:33.839Z,89763.84
2023-05-19T08:56:00.752Z,89763.41
2023-05-19T08:58:28.672Z,89757.97
2023-05-19T09:00:56.061Z,89755.41
2023-05-19T09:03:23.899Z,89748.34
2023-05-19T09:05:50.600Z,89752.59
2023-05-19T09:08:16.898Z,89750.41
2023-05-19T09:10:43.170Z,89749.53
2023-05-19T09:13:09.431Z,89741.19
2023-05-19T09:15:35.869Z,89743.03
2023-05-19T09:18:02.290Z,89734.19
2023-05-19T09:20:28.615Z,89743.94
2023-05-19T09:22:54.927Z,89743.44
2023-05-19T09:25:21.320Z,89736.69
2023-05-19T09:27:47.652Z,89731.97
2023-05-19T09:30:13.934Z,89729.03
2023-05-19T09:32:40.271Z,89731.59
2023-05-19T09:35:06.690Z,89727.13
2023-05-19T09:37:32.958Z,89722.09
2023-05-19T09:39:59.252Z,89716.78
2023-05-19T09:42:25.511Z,89708.94
2023-05-19T09:44:51.777Z,89712.44
2023-05-19T09:47:18.048Z,89716.09
2023-05-19T09:49:44.360Z,89705.25
2023-05-19T09:52:11.216Z,89703.75
2023-05-19T09:54:38.951Z,89702.41
2023-05-19T09:57:07.050Z,89707.75
2023-05-19T09:59:34.505Z,89706.16
2023-05-19T10:02:00.831Z,89703.84
2023-05-19T10:04:27.175Z,89696.06
2023-05-19T10:06:53.577Z,89704.19
2023-05-19T10:09:19.852Z,89697.69
2023-05-19T10:11:46.126Z,89704.28
2023-05-19T10:14:12.409Z,89693.56
2023-05-19T10:16:38.723Z,89698.75
2023-05-19T10:19:05.157Z,89691.09
2023-05-19T10:21:31.574Z,89693.72
2023-05-19T10:23:57.852Z,89691.25
2023-05-19T10:26:24.110Z,89692.69
2023-05-19T10:28:50.391Z,89684.78
2023-05-19T10:31:16.706Z,89685.63
2023-05-19T10:33:43.009Z,89687.25
2023-05-19T10:36:09.288Z,89686.53
2023-05-19T10:38:35.555Z,89680.63
2023-05-19T10:41:01.832Z,89674.47
2023-05-19T10:43:28.185Z,89678.59
2023-05-19T10:45:54.519Z,89671.34
2023-05-19T10:48:20.815Z,89674.41
2023-05-19T10:50:47.082Z,89675.19
2023-05-19T10:53:13.349Z,89668.28
2023-05-19T10:55:39.688Z,89667.69
2023-05-19T10:58:06.671Z,89665.47
2023-05-19T11:00:32.971Z,89662.38
2023-05-19T11:02:59.304Z,89667.09
2023-05-19T11:05:25.565Z,89662.06
2023-05-19T11:07:51.902Z,89669.44
2023-05-19T11:10:18.157Z,89668.22
2023-05-19T11:12:44.436Z,89671.66
2023-05-19T11:15:10.717Z,89665.63
2023-05-19T11:17:37.023Z,89660.59
2023-05-19T11:20:03.330Z,89659.34
2023-05-19T11:22:29.670Z,89654.03
2023-05-19T11:24:55.931Z,89656.69
2023-05-19T11:27:22.201Z,89654.28
2023-05-19T11:29:48.480Z,89653.53
2023-05-19T11:32:14.937Z,89645.13
2023-05-19T11:34:41.246Z,89648.72
2023-05-19T11:37:07.541Z,89648.44
2023-05-19T11:39:33.821Z,89642.47
2023-05-19T11:42:00.113Z,89647.78
2023-05-19T11:44:26.445Z,89645.56
2023-05-19T11:46:52.852Z,89647.66
2023-05-19T11:49:19.204Z,89642.28
2023-05-19T11:51:45.465Z,89635.94
2023-05-19T11:54:11.746Z,89629.06
2023-05-19T11:56:38.012Z,89630.00
2023-05-19T11:59:04.393Z,89631.88
2023-05-19T12:01:30.651Z,89635.91
2023-05-19T12:03:57.082Z,89633.16
2023-05-19T12:06:23.497Z,89635.25
2023-05-19T12:08:49.791Z,89639.84
2023-05-19T12:11:16.987Z,89638.09
2023-05-19T12:13:44.380Z,89636.34
2023-05-19T12:16:10.716Z,89634.47
2023-05-19T12:18:37.159Z,89639.75
2023-05-19T12:21:03.503Z,89635.22
2023-05-19T12:23:29.821Z,89642.44
2023-05-19T12:25:56.115Z,89642.31
2023-05-19T12:28:22.378Z,89646.06
2023-05-19T12:30:48.651Z,89643.09
2023-05-19T12:33:15.149Z,89640.81
2023-05-19T12:35:41.596Z,89642.50
2023-05-19T12:38:08.026Z,89641.34
2023-05-19T12:40:34.642Z,89650.59
2023-05-19T12:43:01.211Z,89648.81
2023-05-19T12:45:27.548Z,89646.16
2023-05-19T12:47:53.873Z,89648.91
2023-05-19T12:50:20.285Z,89648.34
2023-05-19T12:52:46.584Z,89644.34
2023-05-19T12:55:13.365Z,89644.69
2023-05-19T12:57:39.786Z,89648.09
2023-05-19T13:00:06.109Z,89645.28
2023-05-19T13:02:32.517Z,89644.28
2023-05-19T13:04:58.857Z,89645.63
2023-05-19T13:07:25.133Z,89636.75
2023-05-19T13:09:51.433Z,89638.56
2023-05-19T13:12:17.707Z,89637.97
2023-05-19T13:14:43.992Z,89640.66
2023-05-19T13:17:10.301Z,89637.94
2023-05-19T13:19:36.698Z,89642.91
2023-05-19T13:22:02.984Z,89645.31
2023-05-19T13:24:29.317Z,89645.66
2023-05-19T13:26:56.172Z,89640.88
2023-05-19T13:29:22.537Z,89640.16
2023-05-19T13:31:48.899Z,89629.28
2023-05-19T13:34:15.165Z,89635.19
2023-05-19T13:36:41.483Z,89630.50
2023-05-19T13:39:07.769Z,89625.63
2023-05-19T13:41:34.084Z,89623.06
2023-05-19T13:44:00.382Z,89627.06
2023-05-19T13:46:43.486Z,89626.19
2023-05-19T13:49:11.887Z,89623.25
2023-05-19T13:51:38.143Z,89621.59
2023-05-19T13:54:04.413Z,89619.66
2023-05-19T13:56:30.688Z,89620.13
2023-05-19T13:58:57.025Z,89617.75
2023-05-19T14:01:23.365Z,89622.06
2023-05-19T14:03:49.908Z,89615.00
2023-05-19T14:06:16.399Z,89615.22
2023-05-19T14:08:42.698Z,89619.34
2023-05-19T14:11:08.997Z,89616.56
2023-05-19T14:13:37.293Z,89621.97
2023-05-19T14:16:07.341Z,89624.41
2023-05-19T14:18:33.757Z,89625.31
2023-05-19T14:21:00.005Z,89631.63
2023-05-19T14:23:26.286Z,89620.59
2023-05-19T14:25:52.617Z,89626.09
2023-05-19T14:28:18.872Z,89617.38
2023-05-19T14:30:45.531Z,89619.09
2023-05-19T14:33:11.865Z,89622.66
2023-05-19T14:35:38.224Z,89614.84
2023-05-19T14:38:04.499Z,89616.34
2023-05-19T14:40:30.895Z,89610.59
2023-05-19T14:42:57.465Z,89613.69
2023-05-19T14:45:23.748Z,89610.28
2023-05-19T14:47:50.075Z,89621.13
2023-05-19T14:50:16.441Z,89610.50
2023-05-19T14:52:42.731Z,89607.16
2023-05-19T14:55:09.676Z,89600.53
2023-05-19T14:57:35.950Z,89609.34
2023-05-19T15:00:02.236Z,89597.09
2023-05-19T15:02:29.679Z,89597.50
2023-05-19T15:04:56.175Z,89600.69
2023-05-19T15:07:22.476Z,89600.44
2023-05-19T15:09:48.732Z,89599.78
2023-05-19T15:12:14.999Z,89593.63
2023-05-19T15:14:41.318Z,89595.28
2023-05-19T15:17:07.688Z,89603.53
2023-05-19T15:19:34.041Z,89593.22
2023-05-19T15:22:00.337Z,89588.94
2023-05-19T15:24:26.614Z,89596.75
2023-05-19T15:26:52.930Z,89592.19
2023-05-19T15:29:19.220Z,89587.81
2023-05-19T15:31:45.641Z,89596.13
2023-05-19T15:34:12.015Z,89592.66
2023-05-19T15:36:38.315Z,89587.81
2023-05-19T15:39:04.585Z,89574.09
2023-05-19T15:41:30.868Z,89576.09
2023-05-19T15:43:57.270Z,89579.00
2023-05-19T15:46:23.654Z,89571.75
2023-05-19T15:48:50.031Z,89572.47
2023-05-19T15:51:16.317Z,89568.75
2023-05-19T15:53:42.598Z,89567.63
2023-05-19T15:56:08.867Z,89583.22
2023-05-19T15:58:35.208Z,89582.31
2023-05-19T16:01:01.478Z,89572.47
2023-05-19T16:03:27.903Z,89571.16
2023-05-19T16:05:54.260Z,89570.44
2023-05-19T16:08:20.522Z,89571.19
2023-05-19T16:10:46.782Z,89577.66
2023-05-19T16:13:13.070Z,89570.13
2023-05-19T16:15:39.366Z,89574.97
2023-05-19T16:18:05.734Z,89573.53
2023-05-19T16:20:32.223Z,89562.56
2023-05-19T16:22:58.653Z,89566.28
2023-05-19T16:25:24.943Z,89561.44
2023-05-19T16:27:51.214Z,89561.00
2023-05-19T16:30:17.522Z,89568.44
2023-05-19T16:32:43.851Z,89567.88
2023-05-19T16:35:10.155Z,89565.38
2023-05-19T16:37:36.457Z,89569.94
2023-05-19T16:40:02.753Z,89563.97
2023-05-19T16:42:29.041Z,89570.47
2023-05-19T16:44:55.319Z,89566.03
2023-05-19T16:47:21.624Z,89565.84
2023-05-19T16:49:47.922Z,89574.63
2023-05-19T16:52:14.204Z,89581.56
2023-05-19T16:54:40.492Z,89574.66
2023-05-19T16:57:06.755Z,89580.72
2023-05-19T16:59:33.007Z,89575.69
2023-05-19T17:01:59.383Z,89569.53
2023-05-19T17:04:25.686Z,89565.44
2023-05-19T17:06:51.953Z,89573.53
2023-05-19T17:09:18.236Z,89582.03
2023-05-19T17:11:44.556Z,89579.84
2023-05-19T17:14:10.888Z,89582.16
2023-05-19T17:16:37.168Z,89587.53
2023-05-19T17:19:03.551Z,89589.25
2023-05-19T17:21:29.855Z,89585.38
2023-05-19T17:23:56.155Z,89592.72
2023-05-19T17:26:22.489Z,89592.34
2023-05-19T17:28:48.782Z,89594.56
2023-05-19T17:31:15.131Z,89610.31
2023-05-19T17:33:41.443Z,89605.34
2023-05-19T17:36:07.725Z,89606.94
2023-05-19T17:38:34.020Z,89602.31
2023-05-19T17:41:00.339Z,89603.38
2023-05-19T17:43:26.643Z,89602.38
2023-05-19T17:45:53.008Z,89605.25
2023-05-19T17:48:19.297Z,89614.72
2023-05-19T17:50:45.580Z,89613.88
2023-05-19T17:53:11.828Z,89612.16
2023-05-19T17:55:38.099Z,89613.50
2023-05-19T17:58:04.393Z,89621.56
2023-05-19T18:00:30.666Z,89624.94
2023-05-19T18:02:57.099Z,89622.31
2023-05-19T18:05:25.560Z,89624.13
2023-05-19T18:07:51.830Z,89625.44
2023-05-19T18:10:18.111Z,89624.91
2023-05-19T18:12:44.368Z,89622.88
2023-05-19T18:15:10.666Z,89624.00
2023-05-19T18:17:37.048Z,89617.59
2023-05-19T18:20:03.382Z,89624.66
2023-05-19T18:22:29.676Z,89631.78
2023-05-19T18:24:55.963Z,89635.03
2023-05-19T18:27:22.320Z,89627.22
2023-05-19T18:29:49.679Z,89627.97
2023-05-19T18:32:16.000Z,89630.81
2023-05-19T18:34:42.369Z,89636.56
2023-05-19T18:37:08.650Z,89637.81
2023-05-19T18:39:34.929Z,89631.16
2023-05-19T18:42:01.223Z,89634.09
2023-05-19T18:44:27.492Z,89628.94
2023-05-19T18:46:53.764Z,89642.47
2023-05-19T18:49:20.058Z,89647.94
2023-05-19T18:51:46.355Z,89651.69
2023-05-19T18:54:12.636Z,89654.88
2023-05-19T18:56:38.932Z,89654.56
2023-05-19T18:59:05.251Z,89650.88
2023-05-19T19:01:31.566Z,89651.31
2023-05-19T19:03:57.842Z,89658.69
2023-05-19T19:06:24.183Z,89653.88
2023-05-19T19:08:51.417Z,89652.25
2023-05-19T19:11:17.840Z,89656.16
2023-05-19T19:13:44.259Z,89666.72
2023-05-19T19:16:10.651Z,89665.00
2023-05-19T19:18:37.042Z,89676.00
2023-05-19T19:21:03.386Z,89677.16
2023-05-19T19:23:29.679Z,89677.84
2023-05-19T19:25:56.018Z,89677.16
2023-05-19T19:28:22.390Z,89675.44
2023-05-19T19:30:48.742Z,89682.13
2023-05-19T19:33:15.167Z,89673.09
2023-05-19T19:35:41.529Z,89681.75
2023-05-19T19:38:07.902Z,89677.25
2023-05-19T19:40:34.494Z,89685.22
2023-05-19T19:43:01.084Z,89681.66
2023-05-19T19:45:27.377Z,89681.91
2023-05-19T19:47:53.752Z,89679.75
2023-05-19T19:50:20.112Z,89676.69
2023-05-19T19:52:46.478Z,89687.91
2023-05-19T19:55:12.783Z,89685.47
2023-05-19T19:57:39.121Z,89692.84
2023-05-19T20:00:05.481Z,89688.25
2023-05-19T20:02:31.882Z,89687.03
2023-05-19T20:04:58.228Z,89697.19
2023-05-19T20:07:24.577Z,89698.94
2023-05-19T20:09:50.911Z,89697.50
2023-05-19T20:12:17.209Z,89703.84
2023-05-19T20:14:43.540Z,89707.09
2023-05-19T20:17:09.828Z,89696.44
2023-05-19T20:19:36.184Z,89698.72
2023-05-19T20:22:02.493Z,89698.16
2023-05-19T20:24:28.805Z,89700.16
2023-05-19T20:26:55.131Z,89700.50
2023-05-19T20:29:21.431Z,89708.47
2023-05-19T20:31:47.704Z,89707.13
2023-05-19T20:34:14.006Z,89715.56
2023-05-19T20:36:40.286Z,89707.78
2023-05-19T20:39:06.544Z,89710.19
2023-05-19T20:41:32.900Z,89706.63
2023-05-19T20:43:59.185Z,89711.97
2023-05-19T20:46:25.597Z,89716.66
2023-05-19T20:48:51.971Z,89713.94
2023-05-19T20:51:18.254Z,89711.44
2023-05-19T20:53:44.588Z,89712.38
2023-05-19T20:56:10.887Z,89723.53
2023-05-19T20:58:37.144Z,89718.94
2023-05-19T21:01:03.487Z,89720.41
2023-05-19T21:03:29.771Z,89719.44
2023-05-19T21:05:56.067Z,89721.66
2023-05-19T21:08:22.342Z,89727.03
2023-05-19T21:10:48.651Z,89728.59
2023-05-19T21:13:14.925Z,89727.59
2023-05-19T21:15:41.188Z,89731.69
2023-05-19T21:18:07.646Z,89731.69
2023-05-19T21:20:34.226Z,89729.47
2023-05-19T21:23:00.702Z,89723.44
2023-05-19T21:25:27.055Z,89721.91
2023-05-19T21:27:53.333Z,89719.22
2023-05-19T21:30:19.622Z,89721.56
2023-05-19T21:32:45.933Z,89713.78
2023-05-19T21:35:12.337Z,89711.44
2023-05-19T21:37:38.630Z,89720.53
2023-05-19T21:40:05.024Z,89711.25
2023-05-19T21:42:31.292Z,89709.88
2023-05-19T21:44:57.581Z,89717.03
2023-05-19T21:47:23.832Z,89717.66
2023-05-19T21:49:50.175Z,89718.59
2023-05-19T21:52:16.437Z,89715.44
2023-05-19T21:54:42.692Z,89716.09
2023-05-19T21:57:08.981Z,89711.25
2023-05-19T21:59:35.262Z,89714.81
2023-05-19T22:02:01.590Z,89711.84
2023-05-19T22:04:27.884Z,89717.13
2023-05-19T22:06:54.172Z,89715.13
2023-05-19T22:09:20.429Z,89718.09
2023-05-19T22:11:46.697Z,89713.53
2023-05-19T22:14:13.029Z,89718.38
2023-05-19T22:16:39.381Z,89711.44
2023-05-19T22:19:05.775Z,89715.56
2023-05-19T22:21:32.098Z,89717.78
2023-05-19T22:23:58.425Z,89705.75
2023-05-19T22:26:24.693Z,89713.78
2023-05-19T22:28:50.967Z,89710.16
2023-05-19T22:31:17.317Z,89711.94
2023-05-19T22:33:43.576Z,89706.38
2023-05-19T22:36:09.940Z,89702.06
2023-05-19T22:38:36.201Z,89701.63
2023-05-19T22:41:02.474Z,89703.63
2023-05-19T22:43:28.758Z,89710.69
2023-05-19T22:45:55.055Z,89706.31
2023-05-19T22:48:21.364Z,89713.53
2023-05-19T22:50:47.683Z,89707.53
2023-05-19T22:53:13.951Z,89710.56
2023-05-19T22:55:40.220Z,89712.69
2023-05-19T22:58:06.526Z,89713.22
2023-05-19T23:00:32.903Z,89719.53
2023-05-19T23:02:59.333Z,89722.91
2023-05-19T23:05:25.618Z,89711.72
2023-05-19T23:07:51.971Z,89712.47
2023-05-19T23:10:18.237Z,89715.75
2023-05-19T23:12:44.567Z,89705.69
2023-05-19T23:15:10.896Z,89703.84
2023-05-19T23:17:37.231Z,89704.28
2023-05-19T23:20:03.540Z,89697.25
2023-05-19T23:22:29.822Z,89697.00
2023-05-19T23:24:56.093Z,89699.81
2023-05-19T23:27:22.369Z,89704.06
2023-05-19T23:29:48.634Z,89690.09
2023-05-19T23:32:14.901Z,89688.16
2023-05-19T23:34:41.193Z,89680.13
2023-05-19T23:37:07.460Z,89684.22
2023-05-19T23:39:33.745Z,89678.66
2023-05-19T23:42:00.024Z,89671.44
2023-05-19T23:44:26.292Z,89671.25
2023-05-19T23:46:52.622Z,89668.97
2023-05-19T23:49:18.913Z,89670.00
2023-05-19T23:51:45.176Z,89671.88
2023-05-19T23:54:11.472Z,89669.25
2023-05-19T23:56:37.926Z,89670.91
2023-05-19T23:59:04.217Z,89676.34
